Time;durP1;ratioP1;P1;durP2;ratioP2;P2;SDS_P1;SDS_P2;PMS_P1;PMS_P2;Temp;Humidity;BMP_temperature;BMP_pressure;BME280_temperature;BME280_humidity;BME280_pressure;Samples;Min_cycle;Max_cycle;Signal;HPM_P1;HPM_P2
2022/08/28 00:00:28;;;;;;;13.00;4.85;;;;;;;18.92;63.72;99733.66;5051794;28;20106;-70
2022/08/28 00:02:55;;;;;;;10.05;4.60;;;;;;;18.91;64.87;99746.19;5051936;28;20055;-71
2022/08/28 00:05:25;;;;;;;6.50;4.20;;;;;;;18.97;64.42;99740.31;5051273;28;20048;-71
2022/08/28 00:07:53;;;;;;;8.02;3.33;;;;;;;19.02;64.38;99739.91;5050143;28;20053;-70
2022/08/28 00:10:21;;;;;;;10.70;4.30;;;;;;;19.04;63.80;99746.00;5049350;28;20049;-71
2022/08/28 00:12:49;;;;;;;6.07;3.10;;;;;;;19.03;64.07;99747.81;5049530;28;20036;-70
2022/08/28 00:15:18;;;;;;;7.32;3.47;;;;;;;19.03;63.78;99744.31;5049314;28;20119;-71
2022/08/28 00:17:45;;;;;;;8.45;3.78;;;;;;;18.98;63.89;99743.84;5048586;28;20053;-71
2022/08/28 00:20:14;;;;;;;4.97;2.85;;;;;;;18.95;63.99;99742.28;5049157;28;20135;-70
2022/08/28 00:22:41;;;;;;;7.72;3.00;;;;;;;18.92;63.94;99753.22;5051914;28;20044;-70
2022/08/28 00:25:13;;;;;;;7.63;3.45;;;;;;;18.90;64.01;99744.47;5049149;28;20063;-70
2022/08/28 00:27:56;;;;;;;7.25;3.33;;;;;;;18.90;64.33;99749.81;5048607;28;20053;-70
2022/08/28 00:30:24;;;;;;;8.18;3.15;;;;;;;18.88;63.97;99754.47;5049043;28;20087;-70
2022/08/28 00:32:52;;;;;;;8.18;3.03;;;;;;;18.88;64.04;99760.66;5049179;28;20057;-70
2022/08/28 00:35:20;;;;;;;8.10;3.20;;;;;;;18.86;63.92;99757.25;5049004;28;20056;-69
2022/08/28 00:37:47;;;;;;;5.75;3.20;;;;;;;18.82;63.51;99750.47;5048285;28;20056;-70
2022/08/28 00:40:17;;;;;;;8.43;3.40;;;;;;;18.75;63.71;99756.44;5048685;28;20057;-70
2022/08/28 00:42:45;;;;;;;7.80;2.97;;;;;;;18.67;63.85;99752.56;5048949;28;20186;-70
2022/08/28 00:45:13;;;;;;;11.93;3.33;;;;;;;18.65;63.78;99751.84;5048586;28;20051;-69
2022/08/28 00:47:40;;;;;;;7.10;2.75;;;;;;;18.60;63.62;99747.88;5047665;28;20049;-70
2022/08/28 00:50:09;;;;;;;12.52;3.67;;;;;;;18.54;63.78;99751.91;5051548;28;20044;-70
2022/08/28 00:52:35;;;;;;;9.20;3.35;;;;;;;18.49;64.07;99748.78;5068715;28;20529;-70
2022/08/28 00:55:07;;;;;;;13.77;3.55;;;;;;;18.47;63.51;99757.88;5060176;28;20037;-71
2022/08/28 00:57:39;;;;;;;8.90;2.85;;;;;;;18.42;64.07;99755.59;5047409;28;20056;-70
2022/08/28 01:00:07;;;;;;;7.45;2.72;;;;;;;18.40;63.94;99762.88;5048551;28;20041;-70
2022/08/28 01:02:34;;;;;;;9.80;2.88;;;;;;;18.37;63.81;99757.81;5048573;28;20052;-70
2022/08/28 01:05:01;;;;;;;5.25;2.03;;;;;;;18.35;64.01;99755.25;5048913;28;20056;-71
2022/08/28 01:07:28;;;;;;;11.05;3.25;;;;;;;18.31;64.06;99751.16;5048495;28;20059;-71
2022/08/28 01:09:57;;;;;;;7.60;2.90;;;;;;;18.24;64.10;99756.13;5048828;28;20512;-70
2022/08/28 01:12:29;;;;;;;11.43;3.30;;;;;;;18.26;64.35;99749.81;5048748;28;20063;-71
2022/08/28 01:14:59;;;;;;;9.15;3.10;;;;;;;18.29;63.78;99753.09;5048496;28;20049;-71
2022/08/28 01:17:30;;;;;;;7.25;3.30;;;;;;;18.31;63.56;99759.16;5047910;28;20053;-70
2022/08/28 01:20:01;;;;;;;10.10;3.03;;;;;;;18.31;63.46;99759.16;5048432;28;20155;-70
2022/08/28 01:22:36;;;;;;;5.82;2.85;;;;;;;18.28;62.90;99762.06;5048483;28;20041;-69
2022/08/28 01:25:07;;;;;;;5.80;2.28;;;;;;;18.28;63.33;99762.06;5049245;28;20052;-70
2022/08/28 01:27:34;;;;;;;7.97;2.80;;;;;;;18.17;62.91;99765.59;5048714;28;20500;-71
2022/08/28 01:30:00;;;;;;;11.18;2.67;;;;;;;18.12;63.27;99764.28;5047877;28;20063;-70
2022/08/28 01:32:32;;;;;;;7.72;3.22;;;;;;;18.13;62.72;99764.16;5048435;28;20049;-69
2022/08/28 01:35:00;;;;;;;10.38;2.90;;;;;;;18.06;62.60;99764.78;5048256;28;20420;-69
2022/08/28 01:37:28;;;;;;;7.47;2.35;;;;;;;18.05;62.88;99765.75;5047004;28;20047;-70
2022/08/28 01:39:54;;;;;;;10.25;2.90;;;;;;;18.04;62.62;99764.91;5049847;28;20045;-71
2022/08/28 01:42:23;;;;;;;5.35;2.83;;;;;;;18.00;62.55;99764.31;5058920;28;20112;-70
2022/08/28 01:44:51;;;;;;;6.85;2.33;;;;;;;17.95;62.43;99771.00;5048339;28;20048;-70
2022/08/28 01:47:18;;;;;;;10.05;2.75;;;;;;;17.88;62.63;99775.94;5047213;28;20057;-71
2022/08/28 01:49:44;;;;;;;6.07;3.08;;;;;;;17.87;62.63;99776.94;5047821;28;20060;-70
2022/08/28 01:52:11;;;;;;;4.50;2.42;;;;;;;17.83;62.98;99774.63;5047987;28;20057;-71
2022/08/28 01:54:38;;;;;;;9.60;3.03;;;;;;;17.81;63.19;99774.75;5047851;28;20059;-71
2022/08/28 01:57:05;;;;;;;7.32;2.78;;;;;;;17.76;62.93;99776.91;5047307;28;20076;-71
2022/08/28 01:59:33;;;;;;;8.50;2.55;;;;;;;17.68;63.49;99782.84;5047889;28;20044;-71
2022/08/28 02:02:00;;;;;;;5.82;2.58;;;;;;;17.66;63.14;99774.09;5048014;28;20405;-71
2022/08/28 02:04:26;;;;;;;13.02;3.25;;;;;;;17.66;63.16;99779.44;5047693;28;20420;-71
2022/08/28 02:06:53;;;;;;;5.40;2.17;;;;;;;17.67;63.09;99781.16;5046858;28;20045;-71
2022/08/28 02:09:19;;;;;;;6.78;2.95;;;;;;;17.66;63.42;99775.94;5051706;28;20500;-71
2022/08/28 02:11:46;;;;;;;5.15;3.35;;;;;;;17.66;63.29;99783.94;5051833;28;20048;-70
2022/08/28 02:14:12;;;;;;;7.68;2.90;;;;;;;17.60;63.14;99780.78;5053596;28;20044;-70
2022/08/28 02:16:40;;;;;;;9.63;3.72;;;;;;;17.55;63.73;99779.44;5051298;28;20500;-71
2022/08/28 02:19:07;;;;;;;7.53;2.33;;;;;;;17.56;63.90;99781.13;5051510;28;20900;-70
2022/08/28 02:21:34;;;;;;;5.88;2.60;;;;;;;17.58;63.89;99788.03;5051553;28;20467;-70
2022/08/28 02:24:01;;;;;;;6.80;2.90;;;;;;;17.56;63.59;99789.97;5051599;28;20102;-70
2022/08/28 02:26:29;;;;;;;6.40;2.67;;;;;;;17.55;64.06;99790.13;5050856;28;20076;-71
2022/08/28 02:28:55;;;;;;;10.77;3.00;;;;;;;17.48;64.03;99787.06;5051454;28;20057;-70
2022/08/28 02:31:22;;;;;;;8.13;2.92;;;;;;;17.43;64.10;99783.91;5051241;28;20573;-71
2022/08/28 02:33:50;;;;;;;4.22;2.35;;;;;;;17.44;64.29;99788.28;5051045;28;20071;-70
2022/08/28 02:36:16;;;;;;;11.43;3.83;;;;;;;17.46;64.11;99785.50;5050599;28;20056;-70
2022/08/28 02:38:44;;;;;;;6.03;2.60;;;;;;;17.45;64.01;99786.44;5051064;28;20634;-70
2022/08/28 02:41:12;;;;;;;9.88;4.70;;;;;;;17.48;64.21;99788.91;5051084;28;20458;-70
2022/08/28 02:43:39;;;;;;;17.13;5.35;;;;;;;17.48;63.94;99791.56;5051269;28;20059;-70
2022/08/28 02:46:06;;;;;;;15.95;4.03;;;;;;;17.43;64.03;99791.06;5055874;28;20086;-71
2022/08/28 02:48:35;;;;;;;9.57;3.05;;;;;;;17.43;63.82;99793.75;5056588;28;20136;-72
2022/08/28 02:51:06;;;;;;;10.68;3.50;;;;;;;17.41;63.91;99793.00;5052859;28;20049;-69
2022/08/28 02:53:32;;;;;;;10.68;3.80;;;;;;;17.36;64.03;99796.88;5053582;28;20045;-71
2022/08/28 02:56:01;;;;;;;8.18;3.25;;;;;;;17.32;64.24;99792.72;5053881;28;20044;-71
2022/08/28 02:58:31;;;;;;;4.57;3.00;;;;;;;17.33;64.51;99798.94;5051024;28;20060;-72
2022/08/28 03:00:58;;;;;;;6.50;2.80;;;;;;;17.36;64.38;99799.53;5050993;28;20103;-70
2022/08/28 03:03:25;;;;;;;5.28;2.53;;;;;;;17.42;64.36;99800.03;5051156;28;20044;-73
2022/08/28 03:05:52;;;;;;;9.88;4.05;;;;;;;17.43;63.90;99807.06;5050295;28;20073;-68
2022/08/28 03:08:20;;;;;;;6.95;3.08;;;;;;;17.42;64.30;99802.69;5050983;28;20053;-71
2022/08/28 03:10:47;;;;;;;5.57;2.95;;;;;;;17.36;64.25;99801.34;5050844;28;20535;-72
2022/08/28 03:13:16;;;;;;;7.57;3.38;;;;;;;17.31;64.10;99804.38;5050903;28;20056;-71
2022/08/28 03:15:43;;;;;;;6.72;3.30;;;;;;;17.28;64.49;99801.09;5050647;28;20048;-71
2022/08/28 03:18:09;;;;;;;7.03;3.35;;;;;;;17.24;64.26;99803.13;5050411;28;20052;-72
2022/08/28 03:20:36;;;;;;;12.98;4.28;;;;;;;17.23;64.25;99805.91;5049858;28;20045;-72
2022/08/28 03:25:50;;;;;;;10.35;3.60;;;;;;;17.26;64.52;99803.88;5049943;28;20111;-71
2022/08/28 03:28:16;;;;;;;9.48;3.40;;;;;;;17.16;63.93;99803.72;5050312;28;20573;-71
2022/08/28 03:30:43;;;;;;;7.35;2.90;;;;;;;17.11;64.26;99797.06;5050516;28;20048;-71
2022/08/28 03:33:09;;;;;;;6.35;2.58;;;;;;;17.07;64.59;99801.75;5050134;28;20135;-71
2022/08/28 03:35:37;;;;;;;6.35;3.10;;;;;;;17.06;64.36;99807.22;5050129;28;20072;-71
2022/08/28 03:38:04;;;;;;;9.68;3.92;;;;;;;17.08;64.93;99810.59;5049308;28;20053;-70
2022/08/28 03:40:30;;;;;;;12.55;3.63;;;;;;;17.04;64.80;99796.66;5050165;28;20049;-69
2022/08/28 03:42:58;;;;;;;9.75;3.45;;;;;;;17.04;64.28;99807.31;5050040;28;20187;-70
2022/08/28 03:45:25;;;;;;;9.75;3.55;;;;;;;16.93;64.17;99802.81;5050048;28;20516;-70
2022/08/28 03:47:52;;;;;;;11.63;4.15;;;;;;;16.88;64.94;99806.78;5048708;28;20059;-69
2022/08/28 03:50:18;;;;;;;11.35;3.50;;;;;;;16.85;65.05;99809.66;5050042;28;20063;-69
2022/08/28 03:52:45;;;;;;;13.48;4.25;;;;;;;16.78;64.97;99809.28;5049784;28;20049;-70
2022/08/28 03:55:12;;;;;;;14.70;4.65;;;;;;;16.75;64.95;99805.00;5049509;28;20056;-71
2022/08/28 03:57:39;;;;;;;16.80;4.68;;;;;;;16.73;65.23;99819.38;5049343;28;20055;-70
2022/08/28 04:00:12;;;;;;;16.65;5.20;;;;;;;16.69;65.30;99817.94;5049154;28;20147;-70
2022/08/28 04:02:39;;;;;;;15.38;4.53;;;;;;;16.57;65.51;99821.50;5049589;28;20059;-70
2022/08/28 04:05:07;;;;;;;21.05;5.38;;;;;;;16.55;65.26;99826.09;5050140;28;20140;-70
2022/08/28 04:07:33;;;;;;;16.13;4.85;;;;;;;16.56;65.45;99831.28;5050176;28;20045;-71
2022/08/28 04:10:00;;;;;;;12.45;5.22;;;;;;;16.57;65.67;99833.00;5050121;28;20140;-71
2022/08/28 04:12:27;;;;;;;14.30;4.57;;;;;;;16.61;65.35;99830.94;5052666;28;20059;-72
2022/08/28 04:14:54;;;;;;;9.70;4.20;;;;;;;16.64;65.26;99842.22;5049661;28;20080;-69
2022/08/28 04:17:22;;;;;;;9.38;4.90;;;;;;;16.63;65.31;99839.66;5048857;28;20053;-71
2022/08/28 04:19:52;;;;;;;8.90;4.65;;;;;;;16.61;65.65;99842.44;5049448;28;20060;-70
2022/08/28 04:22:19;;;;;;;12.73;5.07;;;;;;;16.52;65.42;99845.78;5049496;28;20509;-69
2022/08/28 04:24:45;;;;;;;10.32;4.50;;;;;;;16.49;65.98;99841.53;5049357;28;20075;-70
2022/08/28 04:27:13;;;;;;;17.75;5.40;;;;;;;16.46;65.78;99840.91;5048414;28;20170;-70
2022/08/28 04:29:40;;;;;;;11.07;4.47;;;;;;;16.45;66.05;99848.03;5049250;28;20052;-70
2022/08/28 04:32:07;;;;;;;14.68;5.80;;;;;;;16.53;65.55;99850.97;5049186;28;20052;-70
2022/08/28 04:34:36;;;;;;;11.88;6.03;;;;;;;16.47;65.76;99847.94;5049274;28;20049;-70
2022/08/28 04:37:04;;;;;;;11.68;5.00;;;;;;;16.47;65.61;99845.28;5048439;28;20493;-70
2022/08/28 04:39:30;;;;;;;18.80;5.82;;;;;;;16.47;65.52;99848.78;5049130;28;20477;-71
2022/08/28 04:41:57;;;;;;;15.45;5.85;;;;;;;16.46;65.55;99854.19;5049196;28;20045;-71
2022/08/28 04:44:24;;;;;;;13.65;6.00;;;;;;;16.45;65.72;99855.19;5049046;28;20052;-70
2022/08/28 04:46:50;;;;;;;10.27;5.78;;;;;;;16.29;66.10;99853.63;5047873;28;20684;-70
2022/08/28 04:49:17;;;;;;;11.15;5.55;;;;;;;16.25;66.55;99852.13;5048732;28;20048;-70
2022/08/28 04:51:45;;;;;;;15.00;6.28;;;;;;;16.19;66.51;99846.41;5048932;28;20144;-70
2022/08/28 04:54:11;;;;;;;22.33;7.82;;;;;;;16.08;66.77;99845.34;5051142;28;20049;-70
2022/08/28 04:56:39;;;;;;;19.95;7.13;;;;;;;16.06;67.32;99855.25;5048283;28;20053;-70
2022/08/28 04:59:06;;;;;;;18.38;7.38;;;;;;;16.00;67.55;99866.34;5048700;28;20047;-70
2022/08/28 05:01:33;;;;;;;18.88;6.38;;;;;;;15.98;67.54;99867.41;5048803;28;20068;-70
2022/08/28 05:04:02;;;;;;;13.30;6.07;;;;;;;15.98;67.37;99868.25;5048705;28;20052;-70
2022/08/28 05:06:32;;;;;;;12.52;6.20;;;;;;;16.06;67.50;99871.22;5047948;28;20055;-71
2022/08/28 05:09:01;;;;;;;16.23;7.22;;;;;;;16.09;67.38;99865.66;5048557;28;20524;-70
2022/08/28 05:11:30;;;;;;;12.52;5.72;;;;;;;16.14;67.16;99870.66;5048710;28;20052;-70
2022/08/28 05:13:57;;;;;;;16.85;6.55;;;;;;;16.12;67.37;99877.94;5048608;28;20132;-70
2022/08/28 05:16:24;;;;;;;15.25;7.10;;;;;;;16.11;67.05;99878.88;5047975;28;20528;-70
2022/08/28 05:18:50;;;;;;;18.17;7.40;;;;;;;15.95;67.29;99876.44;5048448;28;20083;-70
2022/08/28 05:21:20;;;;;;;14.75;6.57;;;;;;;15.96;67.66;99878.13;5048169;28;20488;-70
2022/08/28 05:23:47;;;;;;;13.13;5.10;;;;;;;15.99;67.39;99883.22;5048323;28;20135;-70
2022/08/28 05:26:18;;;;;;;17.85;7.20;;;;;;;15.95;68.00;99884.44;5047636;28;20056;-70
2022/08/28 05:28:45;;;;;;;18.80;7.15;;;;;;;15.91;67.99;99890.91;5048289;28;20049;-70
2022/08/28 05:31:14;;;;;;;17.80;7.18;;;;;;;15.78;68.35;99892.72;5048232;28;20143;-70
2022/08/28 05:33:41;;;;;;;18.35;7.28;;;;;;;15.78;68.35;99896.22;5048379;28;20044;-70
2022/08/28 05:36:08;;;;;;;23.75;7.07;;;;;;;15.84;68.42;99897.59;5047638;28;20045;-70
2022/08/28 05:38:35;;;;;;;18.40;8.68;;;;;;;15.86;68.41;99906.34;5048017;28;20059;-69
2022/08/28 05:41:03;;;;;;;16.85;7.32;;;;;;;15.80;68.40;99901.44;5047986;28;20053;-69
2022/08/28 05:43:31;;;;;;;16.08;7.50;;;;;;;15.85;68.52;99901.94;5054023;28;20057;-71
2022/08/28 05:45:59;;;;;;;15.18;6.22;;;;;;;15.80;69.01;99896.97;5054331;28;20135;-71
2022/08/28 05:48:30;;;;;;;18.17;6.93;;;;;;;15.86;68.59;99901.00;5054375;28;20096;-71
2022/08/28 05:50:57;;;;;;;15.82;6.68;;;;;;;15.95;68.21;99900.38;5055143;28;21144;-71
2022/08/28 05:53:24;;;;;;;21.77;6.88;;;;;;;15.87;68.68;99902.69;5054892;28;20053;-69
2022/08/28 05:55:51;;;;;;;19.42;6.97;;;;;;;15.86;68.66;99901.84;5053894;28;20136;-71
2022/08/28 05:58:31;;;;;;;16.58;6.97;;;;;;;15.88;68.15;99899.94;5054234;28;20049;-71
2022/08/28 06:01:06;;;;;;;16.67;5.63;;;;;;;15.88;68.51;99907.09;5054771;28;20401;-69
2022/08/28 06:03:33;;;;;;;;;;;;;;;15.94;67.97;99900.47;5055108;28;20401;-70
2022/08/28 06:06:00;;;;;;;12.05;5.75;;;;;;;16.02;68.08;99909.63;5053711;28;19925;-73
2022/08/28 06:08:27;;;;;;;14.32;6.07;;;;;;;16.18;67.67;99913.88;5054513;28;20056;-70
2022/08/28 06:10:53;;;;;;;16.38;6.25;;;;;;;16.16;67.40;99913.13;5054707;28;20056;-70
2022/08/28 06:13:20;;;;;;;13.70;6.45;;;;;;;16.02;67.76;99917.63;5054400;28;20063;-70
2022/08/28 06:15:47;;;;;;;19.33;7.47;;;;;;;16.05;67.84;99917.41;5054212;28;20044;-70
2022/08/28 06:18:16;;;;;;;17.45;6.10;;;;;;;16.11;67.24;99913.44;5053940;28;20053;-70
2022/08/28 06:20:45;;;;;;;16.45;5.18;;;;;;;16.17;67.75;99923.66;5064809;28;20450;-69
2022/08/28 06:23:14;;;;;;;10.30;5.15;;;;;;;16.23;67.48;99922.38;5074224;28;20515;-69
2022/08/28 06:25:44;;;;;;;18.45;6.45;;;;;;;16.22;66.80;99918.88;5074181;28;20052;-70
2022/08/28 06:28:11;;;;;;;10.25;5.07;;;;;;;16.20;67.24;99925.25;5073813;28;20083;-70
2022/08/28 06:30:38;;;;;;;20.25;6.55;;;;;;;16.19;67.28;99924.38;5074438;28;20066;-70
2022/08/28 06:33:07;;;;;;;18.63;7.53;;;;;;;16.20;67.02;99928.75;5074057;28;20053;-70
2022/08/28 06:35:41;;;;;;;12.80;6.13;;;;;;;16.13;67.42;99931.97;5074468;28;20052;-70
2022/08/28 06:38:09;;;;;;;15.05;5.07;;;;;;;16.10;67.59;99935.69;5059183;28;20156;-70
2022/08/28 06:40:39;;;;;;;16.67;5.63;;;;;;;16.29;67.38;99935.22;5054126;28;20049;-69
2022/08/28 06:43:06;;;;;;;18.20;5.32;;;;;;;16.31;67.08;99935.97;5054491;28;20056;-70
2022/08/28 06:45:33;;;;;;;17.45;6.30;;;;;;;16.27;66.95;99934.50;5054261;28;20136;-70
2022/08/28 06:48:00;;;;;;;15.05;6.15;;;;;;;16.30;66.80;99934.28;5054780;28;20053;-71
2022/08/28 06:50:26;;;;;;;14.65;6.75;;;;;;;16.29;66.56;99940.56;5054251;28;20149;-71
2022/08/28 06:52:54;;;;;;;14.77;5.10;;;;;;;16.34;67.33;99935.75;5054357;28;20393;-70
2022/08/28 06:55:21;;;;;;;13.05;6.53;;;;;;;16.43;66.24;99929.78;5049810;28;20053;-71
2022/08/28 06:57:47;;;;;;;15.05;5.45;;;;;;;16.48;66.27;99942.75;5050573;28;20055;-73
2022/08/28 07:00:14;;;;;;;16.63;5.40;;;;;;;16.49;66.44;99936.47;5050808;28;20136;-72
2022/08/28 07:02:42;;;;;;;15.48;6.55;;;;;;;16.59;65.86;99939.31;5050903;28;20567;-72
2022/08/28 07:05:09;;;;;;;15.07;5.55;;;;;;;16.66;65.80;99937.94;5050897;28;20052;-71
2022/08/28 07:07:35;;;;;;;13.63;5.28;;;;;;;16.67;65.51;99939.66;5049807;28;20045;-72
2022/08/28 07:10:03;;;;;;;20.10;7.18;;;;;;;16.68;65.78;99936.00;5050391;28;20060;-70
2022/08/28 07:12:30;;;;;;;11.68;4.72;;;;;;;16.72;65.94;99935.69;5034034;28;20045;-70
2022/08/28 07:14:57;;;;;;;14.85;5.28;;;;;;;16.87;65.31;99946.22;5047024;28;20055;-71
2022/08/28 07:17:23;;;;;;;15.45;5.00;;;;;;;16.96;64.92;99948.22;5049290;28;20405;-69
2022/08/28 07:19:50;;;;;;;22.08;5.68;;;;;;;16.90;65.42;99952.16;5048515;28;20517;-70
2022/08/28 07:22:17;;;;;;;15.30;5.88;;;;;;;16.99;64.75;99955.97;5050142;28;20052;-70
2022/08/28 07:24:43;;;;;;;12.25;5.65;;;;;;;17.03;64.53;99961.91;5050315;28;20049;-69
2022/08/28 07:27:11;;;;;;;13.27;5.88;;;;;;;16.99;64.73;99960.47;5049130;28;20041;-74
2022/08/28 07:29:38;;;;;;;16.00;6.43;;;;;;;17.05;65.15;99960.00;5049715;28;20052;-69
2022/08/28 07:32:05;;;;;;;15.40;6.10;;;;;;;17.10;64.26;99961.34;5050060;28;20240;-71
2022/08/28 07:34:32;;;;;;;15.02;5.65;;;;;;;17.24;64.52;99959.50;5050206;28;20060;-71
2022/08/28 07:37:03;;;;;;;12.07;5.60;;;;;;;17.27;63.84;99961.94;5049353;28;20063;-70
2022/08/28 07:39:30;;;;;;;17.02;5.50;;;;;;;17.33;63.75;99959.66;5047533;28;20564;-70
2022/08/28 07:41:56;;;;;;;14.25;5.38;;;;;;;17.50;63.41;99957.53;5049806;28;20098;-70
2022/08/28 07:47:10;;;;;;;10.45;5.32;;;;;;;17.66;62.21;99955.41;5046187;28;20060;-69
2022/08/28 07:49:37;;;;;;;9.23;4.65;;;;;;;17.70;62.03;99956.03;5049766;28;20099;-70
2022/08/28 07:52:05;;;;;;;13.05;4.97;;;;;;;17.89;62.00;99960.84;5049499;28;20045;-50
2022/08/28 07:54:32;;;;;;;14.15;5.65;;;;;;;18.06;62.10;99965.72;5049830;28;20559;-51
2022/08/28 07:56:58;;;;;;;17.83;5.55;;;;;;;18.22;60.71;99962.72;5049618;28;20047;-53
2022/08/28 07:59:27;;;;;;;12.40;6.03;;;;;;;18.40;59.79;99955.06;5050651;28;20071;-50
2022/08/28 08:01:53;;;;;;;13.48;4.95;;;;;;;18.58;59.68;99966.97;5050741;28;20055;-50
2022/08/28 08:04:22;;;;;;;21.70;6.28;;;;;;;18.67;58.98;99957.34;5050795;28;20143;-53
2022/08/28 08:06:49;;;;;;;22.45;5.60;;;;;;;18.67;59.27;99965.38;5049470;28;20052;-50
2022/08/28 08:09:19;;;;;;;16.85;5.95;;;;;;;18.67;59.12;99963.53;5049946;28;20045;-51
2022/08/28 08:11:46;;;;;;;17.27;5.75;;;;;;;18.57;59.65;99964.41;5050644;28;20059;-49
2022/08/28 08:14:13;;;;;;;12.07;5.10;;;;;;;18.66;59.92;99971.69;5053974;28;20144;-51
2022/08/28 08:16:43;;;;;;;12.30;5.45;;;;;;;18.59;59.14;99967.81;5069767;28;20051;-53
2022/08/28 08:19:13;;;;;;;16.20;5.55;;;;;;;18.60;59.74;99977.50;5070749;28;20058;-52
2022/08/28 08:21:40;;;;;;;16.27;5.65;;;;;;;18.56;59.02;99976.91;5070722;28;20147;-52
2022/08/28 08:24:07;;;;;;;12.95;5.10;;;;;;;18.59;59.12;99975.81;5071061;28;20067;-51
2022/08/28 08:26:34;;;;;;;12.25;4.88;;;;;;;18.67;59.14;99982.25;5070415;28;20052;-49
2022/08/28 08:29:01;;;;;;;15.30;5.18;;;;;;;18.65;58.61;99989.50;5070508;28;20045;-55
2022/08/28 08:31:31;;;;;;;15.70;4.47;;;;;;;18.54;59.03;99980.69;5070475;28;20052;-52
2022/08/28 08:34:01;;;;;;;11.90;4.97;;;;;;;18.65;59.16;99975.31;5070412;28;20052;-51
2022/08/28 08:36:28;;;;;;;10.82;5.10;;;;;;;18.71;58.48;99974.84;5068515;28;20044;-53
2022/08/28 08:38:57;;;;;;;12.77;5.22;;;;;;;18.62;58.85;99983.59;5051685;28;20415;-70
2022/08/28 08:41:28;;;;;;;18.42;5.22;;;;;;;18.60;58.98;99983.69;5051250;28;20402;-70
2022/08/28 08:43:59;;;;;;;20.95;5.38;;;;;;;18.65;58.94;99986.00;5050756;28;20053;-69
2022/08/28 08:46:32;;;;;;;19.08;5.00;;;;;;;18.93;58.32;99984.69;5050155;28;20041;-71
2022/08/28 08:49:04;;;;;;;12.82;4.88;;;;;;;18.96;57.56;99978.25;5050628;28;20140;-69
2022/08/28 08:51:40;;;;;;;9.48;4.68;;;;;;;19.18;57.48;99978.19;5049948;28;20052;-69
2022/08/28 08:54:11;;;;;;;11.80;4.35;;;;;;;19.09;57.34;99989.63;5052722;28;20064;-69
2022/08/28 08:56:41;;;;;;;12.00;4.68;;;;;;;19.19;57.31;99992.38;5049020;28;20041;-71
2022/08/28 08:59:13;;;;;;;13.15;5.43;;;;;;;19.01;57.00;99987.56;5049168;28;20051;-69
2022/08/28 09:01:46;;;;;;;11.23;4.65;;;;;;;18.87;57.56;99994.03;5049455;28;20053;-71
2022/08/28 09:04:25;;;;;;;11.90;5.18;;;;;;;19.03;56.67;99988.31;5049295;28;20049;-69
2022/08/28 09:06:56;;;;;;;18.33;5.97;;;;;;;19.01;56.44;99998.25;5048243;28;20102;-71
2022/08/28 09:09:29;;;;;;;17.20;5.13;;;;;;;19.03;56.60;99993.66;5049066;28;20056;-69
2022/08/28 09:11:58;;;;;;;12.35;4.95;;;;;;;19.17;56.19;99991.66;5049141;28;20055;-70
2022/08/28 09:14:36;;;;;;;13.65;4.35;;;;;;;19.37;55.39;99990.88;5049237;28;20045;-70
2022/08/28 09:17:04;;;;;;;14.15;4.88;;;;;;;19.56;54.97;99992.03;5047641;28;20073;-70
2022/08/28 09:19:32;;;;;;;10.80;4.75;;;;;;;19.49;54.23;99994.34;5048796;28;20408;-70
2022/08/28 09:21:59;;;;;;;16.33;5.13;;;;;;;19.38;54.28;100002.44;5048792;28;20060;-70
2022/08/28 09:24:27;;;;;;;16.50;6.18;;;;;;;19.63;53.58;99993.22;5049001;28;20053;-70
2022/08/28 09:26:58;;;;;;;11.90;3.90;;;;;;;19.59;53.73;99994.44;5048836;28;20044;-70
2022/08/28 09:29:28;;;;;;;10.25;4.88;;;;;;;19.98;52.42;99997.44;5049799;28;20452;-71
2022/08/28 09:31:55;;;;;;;9.05;4.15;;;;;;;20.84;50.91;99990.00;5049176;28;20049;-69
2022/08/28 09:34:29;;;;;;;14.70;5.18;;;;;;;21.28;48.79;99993.19;5048682;28;20139;-69
2022/08/28 09:36:58;;;;;;;10.45;6.18;;;;;;;22.50;45.69;99991.69;5048034;28;20047;-67
2022/08/28 09:39:27;;;;;;;12.48;4.50;;;;;;;23.47;43.08;99987.63;5048649;28;20496;-70
2022/08/28 09:44:53;;;;;;;11.15;4.50;;;;;;;24.39;41.03;99983.63;5048984;28;20060;-71
2022/08/28 09:47:50;;;;;;;11.43;4.93;;;;;;;24.53;40.72;99988.44;5047516;28;20056;-67
2022/08/28 09:50:32;;;;;;;12.13;4.05;;;;;;;25.17;40.66;99991.59;4986781;28;20050;-69
2022/08/28 09:53:19;;;;;;;9.80;4.05;;;;;;;25.76;38.79;99990.66;5040518;28;20075;-68
2022/08/28 09:56:07;;;;;;;15.02;4.28;;;;;;;26.18;37.21;99992.34;5047838;28;20044;-68
2022/08/28 09:58:36;;;;;;;13.05;3.72;;;;;;;25.92;36.97;99988.84;5028575;28;20160;-69
2022/08/28 10:01:15;;;;;;;8.35;4.10;;;;;;;26.09;37.06;99991.53;5028526;28;20045;-73
2022/08/28 10:03:51;;;;;;;15.48;4.65;;;;;;;26.02;37.10;99985.94;5045396;28;20041;-73
2022/08/28 10:06:25;;;;;;;9.50;4.63;;;;;;;26.51;36.23;99979.59;5048049;28;20044;-74
2022/08/28 10:09:06;;;;;;;12.73;4.32;;;;;;;27.35;34.85;99978.03;5049002;28;20044;-71
2022/08/28 10:11:44;;;;;;;10.95;5.00;;;;;;;27.30;34.43;99983.16;5048763;28;20496;-72
2022/08/28 10:14:26;;;;;;;10.23;4.53;;;;;;;27.17;34.05;99980.16;5048548;28;20060;-75
2022/08/28 10:17:06;;;;;;;7.10;4.25;;;;;;;27.35;33.23;99980.75;5049414;28;20041;-71
2022/08/28 10:19:43;;;;;;;10.32;3.83;;;;;;;27.73;32.73;99975.38;5063180;28;20049;-72
2022/08/28 10:22:22;;;;;;;12.82;4.68;;;;;;;27.31;33.28;99976.72;5045087;28;20653;-72
2022/08/28 10:25:02;;;;;;;9.00;3.70;;;;;;;27.60;32.93;99988.69;5044966;28;20049;-71
2022/08/28 10:27:47;;;;;;;10.38;5.60;;;;;;;27.38;32.76;99987.69;5044231;28;20055;-70
2022/08/28 10:30:17;;;;;;;9.98;4.78;;;;;;;27.10;33.35;99980.03;5050689;28;20044;-71
2022/08/28 10:32:59;;;;;;;11.82;4.47;;;;;;;27.55;33.17;99974.88;5052815;28;20045;-70
2022/08/28 10:35:37;;;;;;;10.80;5.38;;;;;;;27.78;32.63;99978.38;5052297;28;20049;-71
2022/08/28 10:38:10;;;;;;;14.25;4.57;;;;;;;28.07;32.27;99981.38;5051373;28;20045;-70
2022/08/28 10:40:50;;;;;;;10.93;4.85;;;;;;;27.97;31.92;99978.94;5052658;28;20052;-71
2022/08/28 10:43:23;;;;;;;12.77;5.15;;;;;;;27.73;33.17;99978.09;5051872;28;20136;-69
2022/08/28 10:45:50;;;;;;;13.50;4.65;;;;;;;27.48;32.87;99976.59;5053863;28;20416;-69
2022/08/28 10:48:23;;;;;;;11.05;4.75;;;;;;;26.74;34.18;99972.44;5051379;28;20106;-70
2022/08/28 10:50:54;;;;;;;11.35;4.93;;;;;;;25.94;34.93;99977.84;5052165;28;20650;-71
2022/08/28 10:53:24;;;;;;;12.68;3.88;;;;;;;25.11;36.24;99983.31;5052011;28;20532;-71
2022/08/28 10:55:57;;;;;;;12.25;4.47;;;;;;;24.35;37.73;99987.66;5051231;28;20518;-69
2022/08/28 10:58:26;;;;;;;10.85;4.78;;;;;;;24.16;38.00;99980.63;5052341;28;20051;-71
2022/08/28 11:00:55;;;;;;;8.98;4.10;;;;;;;24.00;38.60;99982.22;5052479;28;20052;-72
2022/08/28 11:03:24;;;;;;;12.77;4.55;;;;;;;23.78;38.29;99983.56;5051790;28;20053;-71
2022/08/28 11:05:54;;;;;;;8.02;4.53;;;;;;;23.65;38.66;99984.91;5051237;28;20055;-71
2022/08/28 11:08:27;;;;;;;6.30;3.78;;;;;;;23.78;37.84;99978.19;5051343;28;20053;-71
2022/08/28 11:10:57;;;;;;;13.68;4.30;;;;;;;23.59;38.09;99981.00;5031588;28;20049;-71
2022/08/28 11:13:44;;;;;;;14.25;4.82;;;;;;;23.52;39.09;99977.25;5032508;28;20057;-73
2022/08/28 11:16:17;;;;;;;11.13;5.85;;;;;;;23.17;39.50;99978.91;5031200;28;20089;-69
2022/08/28 11:19:33;;;;;;;7.47;4.63;;;;;;;22.98;39.44;99974.50;5031759;28;20108;-71
2022/08/28 11:22:09;;;;;;;11.05;4.68;;;;;;;23.06;39.67;99971.94;5032709;28;20053;-71
2022/08/28 11:24:46;;;;;;;9.38;4.40;;;;;;;23.06;39.18;99971.94;5032097;28;20050;-71
2022/08/28 11:27:21;;;;;;;6.68;3.25;;;;;;;22.95;39.40;99977.47;5030245;28;20413;-71
2022/08/28 11:30:31;;;;;;;10.70;4.25;;;;;;;22.94;39.18;99979.31;5030889;28;20069;-72
2022/08/28 11:33:07;;;;;;;13.07;6.15;;;;;;;22.74;39.71;99980.41;5031811;28;20049;-70
2022/08/28 11:35:47;;;;;;;7.30;4.05;;;;;;;22.63;40.10;99976.06;5031750;28;20140;-72
2022/08/28 11:39:12;;;;;;;10.52;3.78;;;;;;;22.56;40.12;99991.09;5046722;28;20110;-70
2022/08/28 11:42:00;;;;;;;11.23;4.38;;;;;;;22.38;40.72;99988.34;5049679;28;20048;-70
2022/08/28 11:44:40;;;;;;;10.18;4.03;;;;;;;22.35;41.21;99977.03;5052098;28;20044;-72
2022/08/28 11:47:44;;;;;;;8.30;3.15;;;;;;;22.49;41.05;99979.25;5050235;28;20053;-72
2022/08/28 11:50:18;;;;;;;18.30;5.60;;;;;;;22.16;40.23;99977.91;5049158;28;20431;-72